createdAt,value
2023-03-03T00:00:52.104Z,21.40
2023-03-03T00:03:22.621Z,16.77
2023-03-03T00:05:50.803Z,18.23
2023-03-03T00:08:19.901Z,16.17
2023-03-03T00:10:47.233Z,15.52
2023-03-03T00:13:24.139Z,17.98
2023-03-03T00:15:53.123Z,18.23
2023-03-03T00:18:42.715Z,16.60
2023-03-03T00:21:25.672Z,16.90
2023-03-03T00:23:53.200Z,18.25
2023-03-03T00:26:23.487Z,18.25
2023-03-03T00:28:54.676Z,17.90
2023-03-03T00:31:29.584Z,15.80
2023-03-03T00:34:01.857Z,15.05
2023-03-03T00:36:38.081Z,16.30
2023-03-03T00:39:35.630Z,16.80
2023-03-03T00:42:11.165Z,15.95
2023-03-03T00:44:46.489Z,13.70
2023-03-03T00:47:31.642Z,15.15
2023-03-03T00:50:27.325Z,18.20
2023-03-03T00:53:06.678Z,16.60
2023-03-03T00:55:35.091Z,18.00
2023-03-03T00:58:03.509Z,17.65
2023-03-03T01:00:36.180Z,15.55
2023-03-03T01:03:08.603Z,18.27
2023-03-03T01:05:37.131Z,16.70
2023-03-03T01:08:05.381Z,16.42
2023-03-03T01:10:35.918Z,18.92
2023-03-03T01:13:04.770Z,16.75
2023-03-03T01:15:32.593Z,17.20
2023-03-03T01:18:00.047Z,18.50
2023-03-03T01:20:27.843Z,17.95
2023-03-03T01:22:55.087Z,15.52
2023-03-03T01:25:22.566Z,16.98
2023-03-03T01:27:49.791Z,19.40
2023-03-03T01:30:18.596Z,18.25
2023-03-03T01:32:45.937Z,18.90
2023-03-03T01:35:13.247Z,18.88
2023-03-03T01:37:40.621Z,16.50
2023-03-03T01:40:14.642Z,17.55
2023-03-03T01:42:41.881Z,16.52
2023-03-03T01:45:42.628Z,17.60
2023-03-03T01:48:12.140Z,17.95
2023-03-03T01:50:51.919Z,14.52
2023-03-03T01:53:23.742Z,14.40
2023-03-03T01:55:53.212Z,14.70
2023-03-03T01:58:28.780Z,13.90
2023-03-03T02:01:07.262Z,12.55
2023-03-03T02:03:35.587Z,13.18
2023-03-03T02:06:20.090Z,14.85
2023-03-03T02:09:17.923Z,15.40
2023-03-03T02:11:49.010Z,12.82
2023-03-03T02:14:16.482Z,12.73
2023-03-03T02:16:44.325Z,14.93
2023-03-03T02:19:27.735Z,14.40
2023-03-03T02:21:55.319Z,13.43
2023-03-03T02:24:39.446Z,14.85
2023-03-03T02:27:07.035Z,14.80
2023-03-03T02:29:34.318Z,16.33
2023-03-03T02:32:01.960Z,14.65
2023-03-03T02:34:29.353Z,12.02
2023-03-03T02:36:56.609Z,13.02
2023-03-03T02:39:26.563Z,13.20
2023-03-03T02:41:56.185Z,12.95
2023-03-03T02:44:29.036Z,14.95
2023-03-03T02:46:57.632Z,17.98
2023-03-03T02:49:33.701Z,12.95
2023-03-03T02:52:02.654Z,12.50
2023-03-03T02:54:31.375Z,13.52
2023-03-03T02:57:00.784Z,15.32
2023-03-03T02:59:28.630Z,15.18
2023-03-03T03:01:58.058Z,13.00
2023-03-03T03:04:27.455Z,16.05
2023-03-03T03:06:56.290Z,13.40
2023-03-03T03:09:26.010Z,16.33
2023-03-03T03:11:55.052Z,15.20
2023-03-03T03:14:25.789Z,15.98
2023-03-03T03:16:54.710Z,14.63
2023-03-03T03:19:22.066Z,16.92
2023-03-03T03:21:49.562Z,14.35
2023-03-03T03:24:18.156Z,16.50
2023-03-03T03:26:51.396Z,15.63
2023-03-03T03:29:18.729Z,16.02
2023-03-03T03:31:46.088Z,14.35
2023-03-03T03:34:13.830Z,13.60
2023-03-03T03:36:41.507Z,14.55
2023-03-03T03:39:09.093Z,15.35
2023-03-03T03:41:41.104Z,14.30
2023-03-03T03:44:08.454Z,15.85
2023-03-03T03:46:35.778Z,15.55
2023-03-03T03:49:03.070Z,18.50
2023-03-03T03:51:31.577Z,16.30
2023-03-03T03:53:59.331Z,14.30
2023-03-03T03:56:27.077Z,13.98
2023-03-03T03:58:57.662Z,16.45
2023-03-03T04:01:25.546Z,14.60
2023-03-03T04:03:53.852Z,15.95
2023-03-03T04:06:24.312Z,15.13
2023-03-03T04:08:52.744Z,15.27
2023-03-03T04:11:22.839Z,15.77
2023-03-03T04:13:50.161Z,15.18
2023-03-03T04:16:18.010Z,13.90
2023-03-03T04:18:46.814Z,16.08
2023-03-03T04:21:16.733Z,14.20
2023-03-03T04:23:45.814Z,16.95
2023-03-03T04:26:13.200Z,14.18
2023-03-03T04:28:41.498Z,18.30
2023-03-03T04:31:08.972Z,15.38
2023-03-03T04:33:36.342Z,17.83
2023-03-03T04:36:05.392Z,16.20
2023-03-03T04:38:32.949Z,17.08
2023-03-03T04:41:00.685Z,16.38
2023-03-03T04:43:32.006Z,16.20
2023-03-03T04:45:59.439Z,65.80
2023-03-03T04:48:26.720Z,53.55
2023-03-03T04:50:54.610Z,31.27
2023-03-03T04:53:22.013Z,21.27
2023-03-03T04:55:55.024Z,17.77
2023-03-03T04:58:23.301Z,18.35
2023-03-03T05:00:57.539Z,32.05
2023-03-03T05:03:27.398Z,18.35
2023-03-03T05:05:55.035Z,18.42
2023-03-03T05:08:22.546Z,15.43
2023-03-03T05:10:54.302Z,19.02
2023-03-03T05:13:21.661Z,15.85
2023-03-03T05:15:53.460Z,17.08
2023-03-03T05:18:21.369Z,16.45
2023-03-03T05:20:49.772Z,16.92
2023-03-03T05:23:17.132Z,18.48
2023-03-03T05:25:44.816Z,16.77
2023-03-03T05:28:12.286Z,16.60
2023-03-03T05:30:40.026Z,16.98
2023-03-03T05:33:07.594Z,17.40
2023-03-03T05:35:34.962Z,15.52
2023-03-03T05:38:05.302Z,13.95
2023-03-03T05:40:32.826Z,15.15
2023-03-03T05:43:00.120Z,15.52
2023-03-03T05:45:27.584Z,13.90
2023-03-03T05:47:54.898Z,15.38
2023-03-03T05:50:23.379Z,15.15
2023-03-03T05:52:52.028Z,16.30
2023-03-03T05:55:20.050Z,26.45
2023-03-03T05:57:47.363Z,17.20
2023-03-03T06:00:16.801Z,12.10
2023-03-03T06:02:44.223Z,19.83
2023-03-03T06:05:12.022Z,22.40
2023-03-03T06:07:39.856Z,17.13
2023-03-03T06:10:07.956Z,15.30
2023-03-03T06:12:39.108Z,14.43
2023-03-03T06:15:07.526Z,16.75
2023-03-03T06:17:35.001Z,16.13
2023-03-03T06:20:03.360Z,15.13
2023-03-03T06:22:30.827Z,18.13
2023-03-03T06:24:58.648Z,14.35
2023-03-03T06:27:25.918Z,12.15
2023-03-03T06:29:53.327Z,14.30
2023-03-03T06:32:20.696Z,14.85
2023-03-03T06:34:47.954Z,14.30
2023-03-03T06:37:15.192Z,13.00
2023-03-03T06:39:42.494Z,16.63
2023-03-03T06:42:09.967Z,15.60
2023-03-03T06:44:37.477Z,15.32
2023-03-03T06:47:05.929Z,16.38
2023-03-03T06:49:33.399Z,12.73
2023-03-03T06:52:09.898Z,14.75
2023-03-03T06:57:22.664Z,15.52
2023-03-03T06:59:52.602Z,17.45
2023-03-03T07:02:21.022Z,13.93
2023-03-03T07:04:48.504Z,16.52
2023-03-03T07:07:22.811Z,14.65
2023-03-03T07:09:54.284Z,13.50
2023-03-03T07:12:28.564Z,15.35
2023-03-03T07:15:17.935Z,14.15
2023-03-03T07:17:50.892Z,17.65
2023-03-03T07:20:21.820Z,19.02
2023-03-03T07:22:49.377Z,16.45
2023-03-03T07:25:33.578Z,20.83
2023-03-03T07:28:14.730Z,16.25
2023-03-03T07:30:42.773Z,16.10
2023-03-03T07:33:22.925Z,17.77
2023-03-03T07:35:50.308Z,15.05
2023-03-03T07:38:25.550Z,24.10
2023-03-03T07:40:55.800Z,17.13
2023-03-03T07:43:32.501Z,14.27
2023-03-03T07:46:08.676Z,16.20
2023-03-03T07:51:12.244Z,10.60
2023-03-03T07:53:39.696Z,10.50
2023-03-03T07:56:28.049Z,10.60
2023-03-03T07:58:56.776Z,12.45
2023-03-03T08:01:42.084Z,13.57
2023-03-03T08:04:28.545Z,11.98
2023-03-03T08:07:01.325Z,10.02
2023-03-03T08:09:34.432Z,11.88
2023-03-03T08:12:09.192Z,8.70
2023-03-03T08:14:38.540Z,10.93
2023-03-03T08:17:23.825Z,10.68
2023-03-03T08:19:52.802Z,10.07
2023-03-03T08:22:38.114Z,10.43
2023-03-03T08:25:05.587Z,12.30
2023-03-03T08:27:33.023Z,10.68
2023-03-03T08:30:00.279Z,10.77
2023-03-03T08:32:27.604Z,15.15
2023-03-03T08:34:55.088Z,13.27
2023-03-03T08:37:22.429Z,15.75
2023-03-03T08:39:49.914Z,12.55
2023-03-03T08:42:17.172Z,18.38
2023-03-03T08:44:44.555Z,13.40
2023-03-03T08:47:11.795Z,12.93
2023-03-03T08:49:39.932Z,13.38
2023-03-03T08:52:07.201Z,21.80
2023-03-03T08:54:34.757Z,15.55
2023-03-03T08:57:02.132Z,16.83
2023-03-03T08:59:29.380Z,17.00
2023-03-03T09:01:56.980Z,18.48
2023-03-03T09:04:24.423Z,16.50
2023-03-03T09:06:51.711Z,18.17
2023-03-03T09:09:18.945Z,16.73
2023-03-03T09:11:47.165Z,16.15
2023-03-03T09:14:17.070Z,15.55
2023-03-03T09:16:51.386Z,18.40
2023-03-03T09:19:30.832Z,18.02
2023-03-03T09:22:18.124Z,15.13
2023-03-03T09:24:47.559Z,18.05
2023-03-03T09:27:33.868Z,17.33
2023-03-03T09:30:39.482Z,15.20
2023-03-03T09:33:31.011Z,18.50
2023-03-03T09:36:03.921Z,18.30
2023-03-03T09:38:39.918Z,16.98
2023-03-03T09:41:25.454Z,14.32
2023-03-03T09:44:17.837Z,13.80
2023-03-03T09:46:45.120Z,20.00
2023-03-03T09:49:18.905Z,17.65
2023-03-03T09:51:57.604Z,14.80
2023-03-03T09:54:54.956Z,15.88
2023-03-03T09:57:32.545Z,16.23
2023-03-03T10:00:17.082Z,14.00
2023-03-03T10:02:57.801Z,15.43
2023-03-03T10:05:48.737Z,16.13
2023-03-03T10:08:37.421Z,16.42
2023-03-03T10:11:37.260Z,15.60
2023-03-03T10:14:42.168Z,14.98
2023-03-03T10:17:18.543Z,16.13
2023-03-03T10:20:11.551Z,16.00
2023-03-03T10:22:48.766Z,16.73
2023-03-03T10:25:37.764Z,16.40
2023-03-03T10:28:30.161Z,21.23
2023-03-03T10:31:29.157Z,17.58
2023-03-03T10:34:22.329Z,16.50
2023-03-03T10:37:15.882Z,18.00
2023-03-03T10:40:20.009Z,15.35
2023-03-03T10:43:05.361Z,15.23
2023-03-03T10:46:03.284Z,14.70
2023-03-03T10:48:40.867Z,15.27
2023-03-03T10:51:28.367Z,19.33
2023-03-03T10:54:30.632Z,15.98
2023-03-03T10:57:07.526Z,14.60
2023-03-03T10:59:45.235Z,16.67
2023-03-03T11:02:30.764Z,17.80
2023-03-03T11:05:31.262Z,15.48
2023-03-03T11:08:20.893Z,14.90
2023-03-03T11:10:54.772Z,16.40
2023-03-03T11:13:41.691Z,14.18
2023-03-03T11:16:34.662Z,16.17
2023-03-03T11:19:16.686Z,16.23
2023-03-03T11:22:13.590Z,17.85
2023-03-03T11:24:53.070Z,16.65
2023-03-03T11:27:26.232Z,14.70
2023-03-03T11:30:23.824Z,15.90
2023-03-03T11:33:06.272Z,15.63
2023-03-03T11:35:36.927Z,14.43
2023-03-03T11:38:23.399Z,17.95
2023-03-03T11:41:15.484Z,17.05
2023-03-03T11:43:47.398Z,16.80
2023-03-03T11:46:46.338Z,14.02
2023-03-03T11:49:23.914Z,14.23
2023-03-03T11:52:02.914Z,15.27
2023-03-03T11:54:45.707Z,16.70
2023-03-03T11:57:19.011Z,14.38
2023-03-03T12:00:10.886Z,16.65
2023-03-03T12:02:50.497Z,17.58
2023-03-03T12:05:23.618Z,14.32
2023-03-03T12:08:05.321Z,16.17
2023-03-03T12:11:09.833Z,14.75
2023-03-03T12:13:48.525Z,15.82
2023-03-03T12:16:27.818Z,13.15
2023-03-03T12:19:15.318Z,14.45
2023-03-03T12:21:51.005Z,18.15
2023-03-03T12:24:49.357Z,13.85
2023-03-03T12:27:42.936Z,16.83
2023-03-03T12:30:32.124Z,17.85
2023-03-03T12:33:21.124Z,15.13
2023-03-03T12:36:05.400Z,14.30
2023-03-03T12:38:50.233Z,13.13
2023-03-03T12:41:37.287Z,14.95
2023-03-03T12:44:28.755Z,16.55
2023-03-03T12:47:33.288Z,15.10
2023-03-03T12:50:18.564Z,13.68
2023-03-03T12:53:10.819Z,12.55
2023-03-03T12:56:07.412Z,15.20
2023-03-03T12:58:57.922Z,15.77
2023-03-03T13:02:01.963Z,15.77
2023-03-03T13:04:38.131Z,16.83
2023-03-03T13:07:09.159Z,16.25
2023-03-03T13:10:00.848Z,15.85
2023-03-03T13:12:41.752Z,15.77
2023-03-03T13:15:18.343Z,15.60
2023-03-03T13:17:56.746Z,14.35
2023-03-03T13:20:27.047Z,14.52
2023-03-03T13:23:38.148Z,13.73
2023-03-03T13:26:32.090Z,13.20
2023-03-03T13:29:30.205Z,16.13
2023-03-03T13:32:02.188Z,15.93
2023-03-03T13:34:56.860Z,13.40
2023-03-03T13:37:42.181Z,13.98
2023-03-03T13:40:25.570Z,15.05
2023-03-03T13:42:58.533Z,12.10
2023-03-03T13:45:41.275Z,12.27
2023-03-03T13:48:20.751Z,12.32
2023-03-03T13:51:00.222Z,11.75
2023-03-03T13:54:15.151Z,11.82
2023-03-03T13:56:45.388Z,9.48
2023-03-03T13:59:34.325Z,11.15
2023-03-03T14:02:26.237Z,13.65
2023-03-03T14:04:58.654Z,13.20
2023-03-03T14:07:38.984Z,14.63
2023-03-03T14:10:18.326Z,15.77
2023-03-03T14:13:17.948Z,14.35
2023-03-03T14:15:50.488Z,12.32
2023-03-03T14:18:46.708Z,13.30
2023-03-03T14:21:29.832Z,16.20
2023-03-03T14:24:18.002Z,12.25
2023-03-03T14:26:51.017Z,13.27
2023-03-03T14:29:27.483Z,13.50
2023-03-03T14:31:56.649Z,13.68
2023-03-03T14:34:23.927Z,13.27
2023-03-03T14:36:55.789Z,11.98
2023-03-03T14:39:30.578Z,14.82
2023-03-03T14:41:59.302Z,14.05
2023-03-03T14:44:37.101Z,23.08
2023-03-03T14:47:10.722Z,11.95
2023-03-03T14:49:40.723Z,13.55
2023-03-03T14:52:19.070Z,13.88
2023-03-03T14:54:56.146Z,15.95
2023-03-03T14:57:35.982Z,13.70
2023-03-03T15:00:29.948Z,13.38
2023-03-03T15:03:27.970Z,15.30
2023-03-03T15:05:57.963Z,13.55
2023-03-03T15:08:33.076Z,14.82
2023-03-03T15:11:17.547Z,14.05
2023-03-03T15:13:45.133Z,14.63
2023-03-03T15:16:19.584Z,18.20
2023-03-03T15:19:19.040Z,14.43
2023-03-03T15:22:14.498Z,15.95
2023-03-03T15:24:52.996Z,16.02
2023-03-03T15:27:27.578Z,17.13
2023-03-03T15:30:02.660Z,17.00
2023-03-03T15:32:48.539Z,16.67
2023-03-03T15:35:34.593Z,14.60
2023-03-03T15:38:23.024Z,16.25
2023-03-03T15:41:11.443Z,18.05
2023-03-03T15:44:14.400Z,16.67
2023-03-03T15:46:58.222Z,16.92
2023-03-03T15:49:53.199Z,19.65
2023-03-03T15:52:33.167Z,15.60
2023-03-03T15:55:32.361Z,18.33
2023-03-03T15:58:08.364Z,21.42
2023-03-03T16:00:38.763Z,17.33
2023-03-03T16:03:18.725Z,17.40
2023-03-03T16:06:04.071Z,16.05
2023-03-03T16:08:44.872Z,16.52
2023-03-03T16:11:44.664Z,21.95
2023-03-03T16:14:17.728Z,18.85
2023-03-03T16:17:03.876Z,16.48
2023-03-03T16:19:55.022Z,17.00
2023-03-03T16:22:27.690Z,15.38
2023-03-03T16:25:21.948Z,18.05
2023-03-03T16:28:16.863Z,19.27
2023-03-03T16:30:50.477Z,16.20
2023-03-03T16:33:36.528Z,17.13
2023-03-03T16:36:11.761Z,17.90
2023-03-03T16:38:43.221Z,15.67
2023-03-03T16:41:21.178Z,18.25
2023-03-03T16:44:17.892Z,16.05
2023-03-03T16:46:49.319Z,19.80
2023-03-03T16:49:22.739Z,17.95
2023-03-03T16:51:57.002Z,16.27
2023-03-03T16:54:54.291Z,21.52
2023-03-03T16:57:33.253Z,21.58
2023-03-03T17:00:09.649Z,20.70
2023-03-03T17:02:39.984Z,22.35
2023-03-03T17:05:34.035Z,17.27
2023-03-03T17:08:28.698Z,19.45
2023-03-03T17:11:21.562Z,16.42
2023-03-03T17:13:57.822Z,20.85
2023-03-03T17:19:50.937Z,20.55
2023-03-03T17:22:38.777Z,19.75
2023-03-03T17:25:06.124Z,21.60
2023-03-03T17:27:57.946Z,24.95
2023-03-03T17:30:45.478Z,22.70
2023-03-03T17:33:30.156Z,23.15
2023-03-03T17:36:07.895Z,20.08
2023-03-03T17:38:47.267Z,21.33
2023-03-03T17:41:17.278Z,19.98
2023-03-03T17:44:13.673Z,22.50
2023-03-03T17:46:55.067Z,19.70
2023-03-03T17:49:46.176Z,23.33
2023-03-03T17:52:43.470Z,19.83
2023-03-03T17:58:18.922Z,19.38
2023-03-03T18:01:07.263Z,20.45
2023-03-03T18:04:05.728Z,19.77
2023-03-03T18:06:56.579Z,22.77
2023-03-03T18:09:32.553Z,20.85
2023-03-03T18:12:41.447Z,17.83
2023-03-03T18:15:08.684Z,22.90
2023-03-03T18:17:51.102Z,20.02
2023-03-03T18:20:39.390Z,21.38
2023-03-03T18:23:31.725Z,21.90
2023-03-03T18:26:01.537Z,25.50
2023-03-03T18:28:46.381Z,23.67
2023-03-03T18:31:28.468Z,23.20
2023-03-03T18:34:41.478Z,24.08
2023-03-03T18:37:30.736Z,22.85
2023-03-03T18:40:03.857Z,21.27
2023-03-03T18:42:38.816Z,23.83
2023-03-03T18:45:18.384Z,20.80
2023-03-03T18:48:02.769Z,21.58
2023-03-03T18:50:45.042Z,23.00
2023-03-03T18:53:15.449Z,23.25
2023-03-03T18:55:50.370Z,21.80
2023-03-03T18:58:18.545Z,23.13
2023-03-03T19:00:51.608Z,20.77
2023-03-03T19:03:38.272Z,24.10
2023-03-03T19:06:10.457Z,23.63
2023-03-03T19:08:53.793Z,25.67
2023-03-03T19:11:50.770Z,24.63
2023-03-03T19:14:28.887Z,21.40
2023-03-03T19:16:58.219Z,25.23
2023-03-03T19:20:04.200Z,27.13
2023-03-03T19:22:40.023Z,26.15
2023-03-03T19:25:15.805Z,24.40
2023-03-03T19:27:52.848Z,28.85
2023-03-03T19:30:38.752Z,30.15
2023-03-03T19:33:18.252Z,30.43
2023-03-03T19:36:16.970Z,28.85
2023-03-03T19:38:54.908Z,27.48
2023-03-03T19:41:43.509Z,29.33
2023-03-03T19:44:35.075Z,28.38
2023-03-03T19:47:06.524Z,24.27
2023-03-03T19:49:53.068Z,23.80
2023-03-03T19:52:36.617Z,29.65
2023-03-03T19:55:18.273Z,23.63
2023-03-03T19:57:46.595Z,26.38
2023-03-03T20:00:35.521Z,24.20
2023-03-03T20:03:19.648Z,28.80
2023-03-03T20:06:08.907Z,29.98
2023-03-03T20:08:42.887Z,21.60
2023-03-03T20:11:20.373Z,18.73
2023-03-03T20:14:05.673Z,22.08
2023-03-03T20:16:42.795Z,20.67
2023-03-03T20:19:56.260Z,23.17
2023-03-03T20:23:06.207Z,20.90
2023-03-03T20:25:48.911Z,24.13
2023-03-03T20:28:54.550Z,19.42
2023-03-03T20:31:52.218Z,22.58
2023-03-03T20:34:29.512Z,21.35
2023-03-03T20:37:35.945Z,22.10
2023-03-03T20:40:10.752Z,19.13
2023-03-03T20:42:44.123Z,22.35
2023-03-03T20:45:32.386Z,23.63
2023-03-03T20:48:24.908Z,20.73
2023-03-03T20:51:05.559Z,19.08
2023-03-03T20:54:14.780Z,18.42
2023-03-03T20:57:19.063Z,19.92
2023-03-03T20:59:54.877Z,25.55
2023-03-03T21:02:30.973Z,19.50
2023-03-03T21:05:17.608Z,17.45
2023-03-03T21:08:11.411Z,21.30
2023-03-03T21:10:40.796Z,23.58
2023-03-03T21:13:25.583Z,17.52
2023-03-03T21:16:01.766Z,21.52
2023-03-03T21:18:29.260Z,21.42
2023-03-03T21:20:56.540Z,22.63
2023-03-03T21:23:23.891Z,24.52
2023-03-03T21:25:54.986Z,19.40
2023-03-03T21:28:24.073Z,18.55
2023-03-03T21:31:04.429Z,20.98
2023-03-03T21:33:45.609Z,21.63
2023-03-03T21:36:18.489Z,19.13
2023-03-03T21:38:47.051Z,20.10
2023-03-03T21:41:16.461Z,20.02
2023-03-03T21:43:49.987Z,17.10
2023-03-03T21:46:25.106Z,21.63
2023-03-03T21:48:52.607Z,22.15
2023-03-03T21:51:21.335Z,24.55
2023-03-03T21:53:48.691Z,20.67
2023-03-03T21:56:15.930Z,19.45
2023-03-03T21:58:43.279Z,18.60
2023-03-03T22:01:10.948Z,18.42
2023-03-03T22:03:38.640Z,19.58
2023-03-03T22:06:06.370Z,17.85
2023-03-03T22:08:33.657Z,22.50
2023-03-03T22:11:00.979Z,18.83
2023-03-03T22:13:28.302Z,19.67
2023-03-03T22:15:55.558Z,18.63
2023-03-03T22:18:22.888Z,25.05
2023-03-03T22:20:50.655Z,26.08
2023-03-03T22:23:18.953Z,24.38
2023-03-03T22:25:46.633Z,29.75
2023-03-03T22:28:14.285Z,27.25
2023-03-03T22:30:41.836Z,28.00
2023-03-03T22:33:09.147Z,30.80
2023-03-03T22:35:36.636Z,28.40
2023-03-03T22:38:04.344Z,24.35
2023-03-03T22:40:33.476Z,26.80
2023-03-03T22:43:01.038Z,22.90
2023-03-03T22:45:28.514Z,20.52
2023-03-03T22:47:55.762Z,28.15
2023-03-03T22:50:24.253Z,21.02
2023-03-03T22:52:52.834Z,21.83
2023-03-03T22:55:20.942Z,20.58
2023-03-03T22:57:48.930Z,22.75
2023-03-03T23:00:16.901Z,23.75
2023-03-03T23:02:44.584Z,24.40
2023-03-03T23:05:11.871Z,24.75
2023-03-03T23:07:41.244Z,25.98
2023-03-03T23:10:09.932Z,23.65
2023-03-03T23:12:37.929Z,20.92
2023-03-03T23:15:13.064Z,23.20
2023-03-03T23:17:45.075Z,21.40
2023-03-03T23:20:14.897Z,26.35
2023-03-03T23:22:42.294Z,22.38
2023-03-03T23:25:10.488Z,26.30
2023-03-03T23:27:38.845Z,27.92
2023-03-03T23:30:07.672Z,32.95
2023-03-03T23:32:35.069Z,30.65
2023-03-03T23:35:02.370Z,28.92
2023-03-03T23:37:29.688Z,30.58
2023-03-03T23:39:56.978Z,27.67
2023-03-03T23:42:33.325Z,30.73
2023-03-03T23:47:27.760Z,28.58
2023-03-03T23:49:54.970Z,30.60
2023-03-03T23:52:22.262Z,29.90
2023-03-03T23:54:49.993Z,27.92
2023-03-03T23:57:17.309Z,33.50
2023-03-03T23:59:44.594Z,29.40
